Time;durP1;ratioP1;P1;durP2;ratioP2;P2;SDS_P1;SDS_P2;PMS_P1;PMS_P2;Temp;Humidity;BMP_temperature;BMP_pressure;BME280_temperature;BME280_humidity;BME280_pressure;Samples;Min_cycle;Max_cycle;Signal;HPM_P1;HPM_P2
2022/03/05 00:01:43;;;;;;;97.07;35.83;;;;;;;;;;5094374;28;20032;-81
2022/03/05 00:04:09;;;;;;;94.80;35.83;;;;;;;;;;5094593;28;20038;-81
2022/03/05 00:06:34;;;;;;;89.93;33.80;;;;;;;;;;5095808;28;20355;-81
2022/03/05 00:09:00;;;;;;;97.40;35.88;;;;;;;;;;5111823;28;20046;-80
2022/03/05 00:11:25;;;;;;;100.72;36.72;;;;;;;;;;5094819;28;20043;-81
2022/03/05 00:13:51;;;;;;;97.10;36.40;;;;;;;;;;5105971;28;20031;-81
2022/03/05 00:16:17;;;;;;;96.65;36.17;;;;;;;;;;5095905;28;20450;-81
2022/03/05 00:18:42;;;;;;;97.40;34.47;;;;;;;;;;5094393;28;20073;-82
2022/03/05 00:21:09;;;;;;;95.22;35.03;;;;;;;;;;5094358;28;20086;-82
2022/03/05 00:23:35;;;;;;;90.90;32.97;;;;;;;;;;5095086;28;20024;-81
2022/03/05 00:26:01;;;;;;;88.28;35.28;;;;;;;;;;5111609;28;20339;-81
2022/03/05 00:28:27;;;;;;;92.53;34.97;;;;;;;;;;5077324;28;20027;-81
2022/03/05 00:30:58;;;;;;;97.38;34.47;;;;;;;;;;5095231;28;20063;-80
2022/03/05 00:33:23;;;;;;;;;;;;;;;;;;5095704;28;20047;-81
2022/03/05 00:35:49;;;;;;;86.20;29.58;;;;;;;;;;5098146;28;19919;-81
2022/03/05 00:38:14;;;;;;;84.30;32.20;;;;;;;;;;5094991;28;20024;-81
2022/03/05 00:40:41;;;;;;;78.40;32.10;;;;;;;;;;5094254;28;20031;-81
2022/03/05 00:43:07;;;;;;;94.88;34.15;;;;;;;;;;5093958;28;20035;-81
2022/03/05 00:45:32;;;;;;;100.15;38.38;;;;;;;;;;5094851;28;20028;-80
2022/03/05 00:47:58;;;;;;;86.35;31.15;;;;;;;;;;5076965;28;20036;-81
2022/03/05 00:50:23;;;;;;;79.43;30.65;;;;;;;;;;5060209;28;20119;-81
2022/03/05 00:52:49;;;;;;;84.00;29.73;;;;;;;;;;5093715;28;20032;-80
2022/03/05 00:55:14;;;;;;;83.10;30.85;;;;;;;;;;5113534;28;20043;-80
2022/03/05 00:57:40;;;;;;;82.93;30.00;;;;;;;;;;5104262;28;20055;-81
2022/03/05 01:00:06;;;;;;;75.93;28.60;;;;;;;;;;5094731;28;20028;-81
2022/03/05 01:02:33;;;;;;;73.50;28.40;;;;;;;;;;5077228;28;20421;-80
2022/03/05 01:04:58;;;;;;;83.85;33.05;;;;;;;;;;5093891;28;20103;-81
2022/03/05 01:07:24;;;;;;;75.13;27.90;;;;;;;;;;5093494;28;20441;-81
2022/03/05 01:09:49;;;;;;;72.20;27.95;;;;;;;;;;5094752;28;20860;-81
2022/03/05 01:12:15;;;;;;;75.18;28.40;;;;;;;;;;5107317;28;20028;-81
2022/03/05 01:14:40;;;;;;;83.47;29.25;;;;;;;;;;5100859;28;20028;-81
2022/03/05 01:17:06;;;;;;;78.97;27.30;;;;;;;;;;5096409;28;20059;-80
2022/03/05 01:19:31;;;;;;;76.13;26.63;;;;;;;;;;5096713;28;20024;-82
2022/03/05 01:21:57;;;;;;;72.43;28.83;;;;;;;;;;5094367;28;20036;-81
2022/03/05 01:24:22;;;;;;;82.18;30.00;;;;;;;;;;5076940;28;20051;-80
2022/03/05 01:26:48;;;;;;;82.00;29.75;;;;;;;;;;5093273;28;20016;-81
2022/03/05 01:29:13;;;;;;;81.68;30.05;;;;;;;;;;5093060;28;20024;-81
2022/03/05 01:31:39;;;;;;;78.72;29.98;;;;;;;;;;5094294;28;20049;-80
2022/03/05 01:34:04;;;;;;;78.65;29.65;;;;;;;;;;5093237;28;20035;-80
2022/03/05 01:36:29;;;;;;;76.35;31.02;;;;;;;;;;5075451;28;20032;-80
2022/03/05 01:38:55;;;;;;;78.57;30.92;;;;;;;;;;5085139;28;20083;-81
2022/03/05 01:41:20;;;;;;;81.32;30.55;;;;;;;;;;5096643;28;20082;-80
2022/03/05 01:43:50;;;;;;;83.25;29.83;;;;;;;;;;5093987;28;20489;-80
2022/03/05 01:46:36;;;;;;;72.68;29.48;;;;;;;;;;5076356;28;20115;-82
2022/03/05 01:49:06;;;;;;;77.88;29.90;;;;;;;;;;5093739;28;20092;-81
2022/03/05 01:51:32;;;;;;;74.13;29.17;;;;;;;;;;5092977;28;20024;-80
2022/03/05 01:53:57;;;;;;;72.45;28.45;;;;;;;;;;5093236;28;20036;-80
2022/03/05 01:56:25;;;;;;;87.63;30.45;;;;;;;;;;5092850;28;20036;-80
2022/03/05 01:58:50;;;;;;;82.30;29.73;;;;;;;;;;5092771;28;20473;-80
2022/03/05 02:01:15;;;;;;;75.28;30.13;;;;;;;;;;5069278;28;20046;-81
2022/03/05 02:03:42;;;;;;;83.70;32.33;;;;;;;;;;5076285;28;20119;-80
2022/03/05 02:06:08;;;;;;;94.07;33.35;;;;;;;;;;5076636;28;20369;-80
2022/03/05 02:08:34;;;;;;;82.57;31.73;;;;;;;;;;5093031;28;20024;-80
2022/03/05 02:10:59;;;;;;;87.03;31.50;;;;;;;;;;5094716;28;20405;-80
2022/03/05 02:13:26;;;;;;;73.68;30.70;;;;;;;;;;5076027;28;20028;-80
2022/03/05 02:15:56;;;;;;;77.95;30.65;;;;;;;;;;5075788;28;20119;-80
2022/03/05 02:18:21;;;;;;;84.97;31.25;;;;;;;;;;5098248;28;20451;-80
2022/03/05 02:20:48;;;;;;;76.05;29.45;;;;;;;;;;5077180;28;20045;-80
2022/03/05 02:23:13;;;;;;;76.82;31.70;;;;;;;;;;5108427;28;20043;-80
2022/03/05 02:25:51;;;;;;;78.10;32.22;;;;;;;;;;5115201;28;20055;-80
2022/03/05 02:28:16;;;;;;;79.32;31.08;;;;;;;;;;5095761;28;20028;-81
2022/03/05 02:30:42;;;;;;;93.85;34.60;;;;;;;;;;5077203;28;20016;-80
2022/03/05 02:33:08;;;;;;;86.18;32.95;;;;;;;;;;5097899;28;20035;-80
2022/03/05 02:35:33;;;;;;;85.82;33.25;;;;;;;;;;5114254;28;20544;-80
2022/03/05 02:37:59;;;;;;;86.85;33.25;;;;;;;;;;5095359;28;20078;-78
2022/03/05 02:40:25;;;;;;;83.72;33.85;;;;;;;;;;5106557;28;20024;-81
2022/03/05 02:42:50;;;;;;;84.45;34.13;;;;;;;;;;5103813;28;20012;-81
2022/03/05 02:45:16;;;;;;;99.78;35.97;;;;;;;;;;5109861;28;20062;-80
2022/03/05 02:47:42;;;;;;;90.93;36.63;;;;;;;;;;5103675;28;20088;-80
2022/03/05 02:50:08;;;;;;;91.07;35.65;;;;;;;;;;5097285;28;20044;-80
2022/03/05 02:52:33;;;;;;;98.25;37.20;;;;;;;;;;5096273;28;20125;-80
2022/03/05 02:54:59;;;;;;;91.28;35.70;;;;;;;;;;5113055;28;20058;-80
2022/03/05 02:57:25;;;;;;;86.20;35.80;;;;;;;;;;5078940;28;20483;-80
2022/03/05 02:59:50;;;;;;;89.20;36.30;;;;;;;;;;5096300;28;20031;-79
2022/03/05 03:02:17;;;;;;;94.25;35.78;;;;;;;;;;5078959;28;20038;-79
2022/03/05 03:04:42;;;;;;;91.85;34.80;;;;;;;;;;5087220;28;20016;-79
2022/03/05 03:07:08;;;;;;;86.38;35.10;;;;;;;;;;5084627;28;20454;-80
2022/03/05 03:09:33;;;;;;;84.13;34.50;;;;;;;;;;5078852;28;20023;-80
2022/03/05 03:11:58;;;;;;;88.05;32.63;;;;;;;;;;5095792;28;20127;-79
2022/03/05 03:14:24;;;;;;;84.53;34.67;;;;;;;;;;5079209;28;20020;-80
2022/03/05 03:16:49;;;;;;;102.85;38.38;;;;;;;;;;5078763;28;20079;-80
2022/03/05 03:19:15;;;;;;;96.43;37.28;;;;;;;;;;5096756;28;20453;-80
2022/03/05 03:21:40;;;;;;;93.55;37.17;;;;;;;;;;5112651;28;20024;-80
2022/03/05 03:24:06;;;;;;;90.72;35.55;;;;;;;;;;5095340;28;20020;-80
2022/03/05 03:26:31;;;;;;;95.60;35.67;;;;;;;;;;5108395;28;20012;-80
2022/03/05 03:28:57;;;;;;;99.88;41.20;;;;;;;;;;5097780;28;20031;-80
2022/03/05 03:31:22;;;;;;;103.47;39.47;;;;;;;;;;5096447;28;20024;-80
2022/03/05 03:33:48;;;;;;;110.70;41.65;;;;;;;;;;5095615;28;20020;-80
2022/03/05 03:36:13;;;;;;;110.47;42.08;;;;;;;;;;5095739;28;20067;-81
2022/03/05 03:38:40;;;;;;;117.13;44.95;;;;;;;;;;5096195;28;20024;-80
2022/03/05 03:41:05;;;;;;;118.90;45.13;;;;;;;;;;5096197;28;20036;-81
2022/03/05 03:43:31;;;;;;;111.20;43.70;;;;;;;;;;5096201;28;20086;-79
2022/03/05 03:45:56;;;;;;;115.70;46.30;;;;;;;;;;5096662;28;20078;-81
2022/03/05 03:48:22;;;;;;;107.93;44.88;;;;;;;;;;5104439;28;20042;-80
2022/03/05 03:50:47;;;;;;;126.90;51.60;;;;;;;;;;5078569;28;20039;-80
2022/03/05 03:53:13;;;;;;;120.47;49.22;;;;;;;;;;5094713;28;20123;-80
2022/03/05 03:55:39;;;;;;;116.78;44.42;;;;;;;;;;5096140;28;20028;-80
2022/03/05 03:58:04;;;;;;;110.57;45.00;;;;;;;;;;5095748;28;20137;-80
2022/03/05 04:00:30;;;;;;;112.53;44.67;;;;;;;;;;5095439;28;20035;-80
2022/03/05 04:02:55;;;;;;;109.22;42.95;;;;;;;;;;5096262;28;20028;-79
2022/03/05 04:05:21;;;;;;;113.13;42.60;;;;;;;;;;5077753;28;20024;-79
2022/03/05 04:10:30;;;;;;;116.93;44.00;;;;;;;;;;5106399;28;20035;-79
2022/03/05 04:12:56;;;;;;;121.38;45.05;;;;;;;;;;5128746;27;20028;-80
2022/03/05 04:15:22;;;;;;;132.48;47.95;;;;;;;;;;5079511;28;20016;-81
2022/03/05 04:17:48;;;;;;;128.45;51.33;;;;;;;;;;5077670;28;20047;-81
2022/03/05 04:20:13;;;;;;;132.88;48.83;;;;;;;;;;5094418;28;20036;-80
2022/03/05 04:22:39;;;;;;;131.45;49.03;;;;;;;;;;5077471;28;20069;-80
2022/03/05 04:25:04;;;;;;;126.22;49.70;;;;;;;;;;5094682;28;20032;-80
2022/03/05 04:27:30;;;;;;;126.50;48.17;;;;;;;;;;5077310;28;20043;-80
2022/03/05 04:29:55;;;;;;;114.55;45.22;;;;;;;;;;5079953;28;20024;-81
2022/03/05 04:32:21;;;;;;;113.90;44.65;;;;;;;;;;5119594;28;20032;-81
2022/03/05 04:34:46;;;;;;;111.60;43.25;;;;;;;;;;5077118;28;20040;-81
2022/03/05 04:37:12;;;;;;;101.88;38.38;;;;;;;;;;5060500;28;20035;-81
2022/03/05 04:39:37;;;;;;;89.88;35.17;;;;;;;;;;5095200;28;20024;-80
2022/03/05 04:42:03;;;;;;;82.05;33.47;;;;;;;;;;5093871;28;20036;-80
2022/03/05 04:44:29;;;;;;;87.22;36.67;;;;;;;;;;5093967;28;20346;-80
2022/03/05 04:46:54;;;;;;;93.55;36.08;;;;;;;;;;5077198;28;20055;-80
2022/03/05 04:49:20;;;;;;;95.30;37.63;;;;;;;;;;5093900;28;20032;-80
2022/03/05 04:51:45;;;;;;;92.53;33.70;;;;;;;;;;5061608;28;20040;-79
2022/03/05 04:54:11;;;;;;;93.72;36.67;;;;;;;;;;5101648;28;20055;-80
2022/03/05 04:56:38;;;;;;;89.38;35.70;;;;;;;;;;5094005;28;20028;-80
2022/03/05 04:59:04;;;;;;;80.22;32.72;;;;;;;;;;5077172;28;20032;-80
2022/03/05 05:01:29;;;;;;;97.00;35.20;;;;;;;;;;5094826;28;20653;-80
2022/03/05 05:03:55;;;;;;;93.95;33.75;;;;;;;;;;5093546;28;20056;-81
2022/03/05 05:06:20;;;;;;;100.47;36.42;;;;;;;;;;5093289;28;20024;-80
2022/03/05 05:08:46;;;;;;;93.75;34.00;;;;;;;;;;5060360;28;20032;-79
2022/03/05 05:11:12;;;;;;;94.82;35.78;;;;;;;;;;5077175;28;20031;-79
2022/03/05 05:13:39;;;;;;;104.63;35.58;;;;;;;;;;5100453;28;20074;-79
2022/03/05 05:16:05;;;;;;;94.00;32.22;;;;;;;;;;5099897;28;20044;-83
2022/03/05 05:18:32;;;;;;;84.70;32.55;;;;;;;;;;5093706;28;20056;-80
2022/03/05 05:20:58;;;;;;;83.68;30.75;;;;;;;;;;5076933;28;20049;-81
2022/03/05 05:23:24;;;;;;;87.00;32.60;;;;;;;;;;5094909;28;20061;-81
2022/03/05 05:25:49;;;;;;;88.18;32.75;;;;;;;;;;5093280;28;20426;-80
2022/03/05 05:28:15;;;;;;;98.38;36.10;;;;;;;;;;5093165;28;20028;-79
2022/03/05 05:30:40;;;;;;;96.32;35.50;;;;;;;;;;5076629;28;20024;-80
2022/03/05 05:33:06;;;;;;;96.25;36.00;;;;;;;;;;5094375;28;20024;-80
2022/03/05 05:35:31;;;;;;;86.60;34.92;;;;;;;;;;5099513;28;20025;-80
2022/03/05 05:37:57;;;;;;;87.78;33.38;;;;;;;;;;5082075;28;20035;-80
2022/03/05 05:40:22;;;;;;;92.50;36.88;;;;;;;;;;5076168;28;20080;-80
2022/03/05 05:42:48;;;;;;;98.60;40.70;;;;;;;;;;5059786;28;20024;-80
2022/03/05 05:45:13;;;;;;;117.82;43.92;;;;;;;;;;5094284;28;20023;-85
2022/03/05 05:47:39;;;;;;;129.10;44.20;;;;;;;;;;5093913;28;20475;-81
2022/03/05 05:50:05;;;;;;;108.78;40.75;;;;;;;;;;5092882;28;20028;-81
2022/03/05 05:52:30;;;;;;;98.70;39.50;;;;;;;;;;5060121;28;20028;-80
2022/03/05 05:54:57;;;;;;;103.95;38.10;;;;;;;;;;5093380;28;20020;-81
2022/03/05 05:57:23;;;;;;;100.97;38.90;;;;;;;;;;5086504;28;20028;-81
2022/03/05 05:59:48;;;;;;;115.10;44.50;;;;;;;;;;5081339;28;20062;-81
2022/03/05 06:02:15;;;;;;;193.95;73.03;;;;;;;;;;5076447;28;20127;-81
2022/03/05 06:04:40;;;;;;;142.65;49.80;;;;;;;;;;5092797;28;20127;-81
2022/03/05 06:07:06;;;;;;;122.65;48.03;;;;;;;;;;5059530;28;20126;-82
2022/03/05 06:09:31;;;;;;;142.70;52.38;;;;;;;;;;5075936;28;20085;-81
2022/03/05 06:11:57;;;;;;;139.45;54.35;;;;;;;;;;5076163;28;20350;-81
2022/03/05 06:14:22;;;;;;;140.50;52.85;;;;;;;;;;5092589;28;20036;-81
2022/03/05 06:16:48;;;;;;;151.57;55.75;;;;;;;;;;5091726;28;20071;-80
2022/03/05 06:19:13;;;;;;;144.40;55.05;;;;;;;;;;5094282;28;20028;-82
2022/03/05 06:21:39;;;;;;;146.10;54.67;;;;;;;;;;5092390;28;20042;-82
2022/03/05 06:24:07;;;;;;;143.68;55.15;;;;;;;;;;5096968;28;20028;-81
2022/03/05 06:26:33;;;;;;;159.45;59.72;;;;;;;;;;5096850;28;20441;-82
2022/03/05 06:28:59;;;;;;;151.10;58.25;;;;;;;;;;5096647;28;20126;-82
2022/03/05 06:31:24;;;;;;;158.57;60.17;;;;;;;;;;5097986;28;20114;-80
2022/03/05 06:33:50;;;;;;;203.48;72.80;;;;;;;;;;5062122;28;20475;-81
2022/03/05 06:36:15;;;;;;;211.68;81.07;;;;;;;;;;5095926;28;20024;-82
2022/03/05 06:38:41;;;;;;;215.05;81.60;;;;;;;;;;5095920;28;20032;-81
2022/03/05 06:41:06;;;;;;;194.45;75.38;;;;;;;;;;5097295;28;20259;-82
2022/03/05 06:43:32;;;;;;;197.25;72.25;;;;;;;;;;5095214;28;20039;-81
2022/03/05 06:45:57;;;;;;;242.90;90.85;;;;;;;;;;5094729;28;20330;-82
2022/03/05 06:48:23;;;;;;;214.18;83.75;;;;;;;;;;5096174;28;20028;-82
2022/03/05 06:50:48;;;;;;;215.43;80.65;;;;;;;;;;5095981;28;20028;-81
2022/03/05 06:53:14;;;;;;;204.80;73.82;;;;;;;;;;5097255;28;20353;-82
2022/03/05 06:55:39;;;;;;;192.45;70.22;;;;;;;;;;5096012;28;20028;-81
2022/03/05 06:58:05;;;;;;;212.70;76.40;;;;;;;;;;5097129;28;20413;-81
2022/03/05 07:00:30;;;;;;;206.68;76.97;;;;;;;;;;5097254;28;20118;-81
2022/03/05 07:02:56;;;;;;;189.15;69.85;;;;;;;;;;5096941;28;20032;-82
2022/03/05 07:05:21;;;;;;;200.70;67.60;;;;;;;;;;5096936;28;20440;-82
2022/03/05 07:07:47;;;;;;;170.73;61.72;;;;;;;;;;5078519;28;20024;-82
2022/03/05 07:10:23;;;;;;;233.68;90.93;;;;;;;;;;5095184;28;20031;-81
2022/03/05 07:12:54;;;;;;;194.60;72.88;;;;;;;;;;5061857;28;20064;-81
2022/03/05 07:15:20;;;;;;;186.30;68.50;;;;;;;;;;5094165;28;20024;-81
2022/03/05 07:17:51;;;;;;;205.52;72.40;;;;;;;;;;5111190;28;20048;-82
2022/03/05 07:20:17;;;;;;;193.35;69.15;;;;;;;;;;5098787;28;20028;-82
2022/03/05 07:22:43;;;;;;;235.95;88.38;;;;;;;;;;5098308;28;20039;-82
2022/03/05 07:25:09;;;;;;;221.55;76.97;;;;;;;;;;5090672;28;20064;-82
2022/03/05 07:27:34;;;;;;;212.43;76.30;;;;;;;;;;5095976;28;20024;-82
2022/03/05 07:30:00;;;;;;;191.30;65.90;;;;;;;;;;5095840;28;20326;-82
2022/03/05 07:32:26;;;;;;;186.23;63.90;;;;;;;;;;5078732;28;20126;-82
2022/03/05 07:34:51;;;;;;;170.68;60.78;;;;;;;;;;5094118;28;20079;-82
2022/03/05 07:37:17;;;;;;;217.48;75.03;;;;;;;;;;5096463;28;20028;-81
2022/03/05 07:39:43;;;;;;;207.07;72.38;;;;;;;;;;5096708;28;20491;-81
2022/03/05 07:42:09;;;;;;;216.52;72.30;;;;;;;;;;5095360;28;20373;-81
2022/03/05 07:44:35;;;;;;;198.73;67.93;;;;;;;;;;5098703;28;20128;-82
2022/03/05 07:47:05;;;;;;;198.32;67.78;;;;;;;;;;5100865;28;20040;-82
2022/03/05 07:49:30;;;;;;;193.17;64.47;;;;;;;;;;5096769;28;20663;-82
2022/03/05 07:51:58;;;;;;;197.88;67.18;;;;;;;;;;5094995;28;20074;-82
2022/03/05 07:54:24;;;;;;;204.43;69.25;;;;;;;;;;5062486;28;20041;-82
2022/03/05 07:56:50;;;;;;;168.25;57.05;;;;;;;;;;5095839;28;20028;-82
2022/03/05 07:59:15;;;;;;;184.07;60.08;;;;;;;;;;5095984;28;20031;-81
2022/03/05 08:01:41;;;;;;;137.98;48.03;;;;;;;;;;5095699;28;20119;-82
2022/03/05 08:04:06;;;;;;;140.18;48.60;;;;;;;;;;5078130;28;20440;-82
2022/03/05 08:06:32;;;;;;;135.80;49.00;;;;;;;;;;5084940;28;20035;-83
2022/03/05 08:08:59;;;;;;;159.18;57.38;;;;;;;;;;5102587;28;20174;-82
2022/03/05 08:11:26;;;;;;;162.63;55.28;;;;;;;;;;5095985;28;20028;-80
2022/03/05 08:14:04;;;;;;;156.70;53.85;;;;;;;;;;5078588;28;20100;-82
2022/03/05 08:16:31;;;;;;;145.30;50.17;;;;;;;;;;5094470;28;20377;-82
2022/03/05 08:19:01;;;;;;;138.93;47.97;;;;;;;;;;5094523;28;20172;-82
2022/03/05 08:21:28;;;;;;;128.93;44.88;;;;;;;;;;5095580;28;20080;-82
2022/03/05 08:23:54;;;;;;;146.25;49.10;;;;;;;;;;5094367;28;20032;-83
2022/03/05 08:26:20;;;;;;;142.35;48.28;;;;;;;;;;5094416;28;20054;-82
2022/03/05 08:28:45;;;;;;;119.28;44.67;;;;;;;;;;5104900;28;20050;-82
2022/03/05 08:31:11;;;;;;;131.10;44.85;;;;;;;;;;5078680;28;20059;-79
2022/03/05 08:33:38;;;;;;;134.45;47.05;;;;;;;;;;5095407;28;20028;-79
2022/03/05 08:36:04;;;;;;;118.68;41.75;;;;;;;;;;5094134;28;20024;-79
2022/03/05 08:38:31;;;;;;;109.32;40.85;;;;;;;;;;5088771;28;20118;-81
2022/03/05 08:40:58;;;;;;;118.55;44.75;;;;;;;;;;5094181;28;20028;-81
2022/03/05 08:43:25;;;;;;;118.97;43.17;;;;;;;;;;5077179;28;20035;-80
2022/03/05 08:45:51;;;;;;;126.63;45.63;;;;;;;;;;5093711;28;20023;-81
2022/03/05 08:48:17;;;;;;;159.27;55.83;;;;;;;;;;5095625;28;20072;-79
2022/03/05 08:50:42;;;;;;;114.90;43.38;;;;;;;;;;5107479;28;20047;-80
2022/03/05 08:53:08;;;;;;;124.07;44.30;;;;;;;;;;5094205;28;20039;-81
2022/03/05 08:55:34;;;;;;;121.03;45.05;;;;;;;;;;5112737;28;20430;-79
2022/03/05 08:57:59;;;;;;;133.68;50.17;;;;;;;;;;5113905;28;20035;-81
2022/03/05 09:00:25;;;;;;;127.47;47.53;;;;;;;;;;5114087;28;20081;-80
2022/03/05 09:02:50;;;;;;;121.28;43.28;;;;;;;;;;5114015;28;20372;-82
2022/03/05 09:05:16;;;;;;;127.72;45.85;;;;;;;;;;5113966;28;20020;-81
2022/03/05 09:07:42;;;;;;;128.18;47.25;;;;;;;;;;5113931;28;20448;-82
2022/03/05 09:10:08;;;;;;;127.93;45.20;;;;;;;;;;5113885;28;20034;-81
2022/03/05 09:12:34;;;;;;;119.25;44.58;;;;;;;;;;5129559;28;20083;-82
2022/03/05 09:15:00;;;;;;;133.27;47.67;;;;;;;;;;5115240;28;20453;-82
2022/03/05 09:17:26;;;;;;;130.68;48.42;;;;;;;;;;5113905;28;20031;-82
2022/03/05 09:19:53;;;;;;;156.50;52.03;;;;;;;;;;5115173;28;20042;-81
2022/03/05 09:22:19;;;;;;;125.95;45.55;;;;;;;;;;5113647;28;20473;-82
2022/03/05 09:24:45;;;;;;;281.25;71.97;;;;;;;;;;5097012;28;20389;-82
2022/03/05 09:27:10;;;;;;;170.00;52.70;;;;;;;;;;5113627;28;20027;-82
2022/03/05 09:29:37;;;;;;;361.67;80.05;;;;;;;;;;5096607;28;20031;-80
2022/03/05 09:32:04;;;;;;;139.00;49.35;;;;;;;;;;5114207;28;20042;-81
2022/03/05 09:34:29;;;;;;;159.95;52.53;;;;;;;;;;5126997;28;20032;-82
2022/03/05 09:36:55;;;;;;;141.13;51.17;;;;;;;;;;5096729;28;20031;-82
2022/03/05 09:39:21;;;;;;;146.48;50.83;;;;;;;;;;5114613;28;20132;-82
2022/03/05 09:41:46;;;;;;;135.45;50.63;;;;;;;;;;5096238;28;20053;-81
2022/03/05 09:44:12;;;;;;;151.40;56.33;;;;;;;;;;5113512;28;20031;-81
2022/03/05 09:46:38;;;;;;;137.15;50.85;;;;;;;;;;5096388;28;20442;-81
2022/03/05 09:49:04;;;;;;;137.02;49.58;;;;;;;;;;5113410;28;20088;-82
2022/03/05 09:51:31;;;;;;;129.48;48.33;;;;;;;;;;5113530;28;20461;-82
2022/03/05 09:53:56;;;;;;;160.05;58.58;;;;;;;;;;5096388;28;20457;-81
2022/03/05 09:56:22;;;;;;;140.35;51.53;;;;;;;;;;5121410;28;20107;-83
2022/03/05 09:58:48;;;;;;;134.85;52.47;;;;;;;;;;5104782;28;20353;-82
2022/03/05 10:01:16;;;;;;;128.48;49.60;;;;;;;;;;5117695;28;20031;-82
2022/03/05 10:03:45;;;;;;;130.23;50.25;;;;;;;;;;5116082;28;20058;-82
2022/03/05 10:06:15;;;;;;;126.13;48.60;;;;;;;;;;5116131;28;20169;-82
2022/03/05 10:08:42;;;;;;;124.15;47.72;;;;;;;;;;5117169;28;20031;-82
2022/03/05 10:11:37;;;;;;;126.13;49.42;;;;;;;;;;5116883;28;20096;-81
2022/03/05 10:14:14;;;;;;;139.60;49.30;;;;;;;;;;5116999;28;20524;-81
2022/03/05 10:16:41;;;;;;;132.57;48.20;;;;;;;;;;5127765;28;20011;-82
2022/03/05 10:19:21;;;;;;;130.18;50.30;;;;;;;;;;5108600;28;20032;-83
2022/03/05 10:22:01;;;;;;;125.30;47.42;;;;;;;;;;5116305;28;20056;-81
2022/03/05 10:24:37;;;;;;;121.00;47.38;;;;;;;;;;5117333;28;20437;-82
2022/03/05 10:27:05;;;;;;;126.70;48.80;;;;;;;;;;5100571;28;20058;-82
2022/03/05 10:29:34;;;;;;;128.73;47.88;;;;;;;;;;5117778;28;20357;-83
2022/03/05 10:32:08;;;;;;;128.20;48.88;;;;;;;;;;5100435;28;20028;-81
2022/03/05 10:34:48;;;;;;;131.80;48.97;;;;;;;;;;5117367;28;20039;-83
2022/03/05 10:37:14;;;;;;;118.90;47.03;;;;;;;;;;5118094;28;20055;-82
2022/03/05 10:39:40;;;;;;;127.53;49.38;;;;;;;;;;5126253;28;20445;-81
2022/03/05 10:42:17;;;;;;;124.20;47.33;;;;;;;;;;5117809;28;20055;-81
2022/03/05 10:44:43;;;;;;;120.53;47.38;;;;;;;;;;5118111;28;20027;-81
2022/03/05 10:47:09;;;;;;;121.45;47.13;;;;;;;;;;5118007;28;20026;-81
2022/03/05 10:49:38;;;;;;;134.32;51.88;;;;;;;;;;5117853;28;20023;-82
2022/03/05 10:52:08;;;;;;;120.95;46.92;;;;;;;;;;5117518;28;20032;-82
2022/03/05 10:54:41;;;;;;;119.10;47.72;;;;;;;;;;5117466;28;20027;-82
2022/03/05 10:57:17;;;;;;;121.68;45.55;;;;;;;;;;5117585;27;20031;-82
2022/03/05 10:59:46;;;;;;;112.10;47.45;;;;;;;;;;5121253;28;20023;-82
2022/03/05 11:02:13;;;;;;;118.55;46.30;;;;;;;;;;5127678;28;20043;-82
2022/03/05 11:04:45;;;;;;;116.35;47.60;;;;;;;;;;5116950;28;20049;-80
2022/03/05 11:07:11;;;;;;;131.60;49.17;;;;;;;;;;5116452;28;20176;-82
2022/03/05 11:09:39;;;;;;;119.13;48.08;;;;;;;;;;5098735;28;20019;-82
2022/03/05 11:12:12;;;;;;;130.02;52.13;;;;;;;;;;5117587;28;20445;-81
2022/03/05 11:14:40;;;;;;;112.25;44.40;;;;;;;;;;5100270;28;20365;-81
2022/03/05 11:17:05;;;;;;;117.15;46.97;;;;;;;;;;5117218;28;20047;-82
2022/03/05 11:19:32;;;;;;;117.70;47.35;;;;;;;;;;5115821;28;20361;-81
2022/03/05 11:21:59;;;;;;;129.77;51.63;;;;;;;;;;5122223;28;20071;-81
2022/03/05 11:24:25;;;;;;;129.85;51.80;;;;;;;;;;5122313;28;20106;-80
2022/03/05 11:26:52;;;;;;;126.53;48.20;;;;;;;;;;5116030;28;20368;-82
2022/03/05 11:29:19;;;;;;;126.00;47.33;;;;;;;;;;5099166;28;20089;-82
2022/03/05 11:31:45;;;;;;;123.13;48.80;;;;;;;;;;5116970;28;20023;-81
2022/03/05 11:34:15;;;;;;;123.13;46.75;;;;;;;;;;5115661;28;20016;-82
2022/03/05 11:36:41;;;;;;;118.43;44.92;;;;;;;;;;5115718;28;20039;-81
2022/03/05 11:39:17;;;;;;;118.22;46.10;;;;;;;;;;5115430;28;20016;-82
2022/03/05 11:42:01;;;;;;;118.05;44.17;;;;;;;;;;5116601;28;20035;-80
2022/03/05 11:44:36;;;;;;;110.97;42.83;;;;;;;;;;5124945;28;20047;-81
2022/03/05 11:47:20;;;;;;;121.65;45.22;;;;;;;;;;5119823;28;20059;-82
2022/03/05 11:49:55;;;;;;;106.95;41.25;;;;;;;;;;5115299;28;20358;-82
2022/03/05 11:52:21;;;;;;;117.75;44.90;;;;;;;;;;5116291;28;20070;-81
2022/03/05 11:55:11;;;;;;;161.75;58.90;;;;;;;;;;5116383;28;20027;-82
2022/03/05 11:57:57;;;;;;;224.30;68.17;;;;;;;;;;5117257;28;20104;-82
2022/03/05 12:00:27;;;;;;;180.60;58.97;;;;;;;;;;5094847;28;20285;-81
2022/03/05 12:02:54;;;;;;;144.00;53.30;;;;;;;;;;5115440;28;20031;-81
2022/03/05 12:05:38;;;;;;;108.32;42.00;;;;;;;;;;5120124;28;20012;-82
2022/03/05 12:08:12;;;;;;;115.55;41.25;;;;;;;;;;5126429;28;20034;-81
2022/03/05 12:10:38;;;;;;;113.13;44.03;;;;;;;;;;5115001;28;20028;-81
2022/03/05 12:13:08;;;;;;;102.95;40.05;;;;;;;;;;5116067;28;20028;-83
2022/03/05 12:15:36;;;;;;;117.40;45.72;;;;;;;;;;5098160;28;20372;-83
2022/03/05 12:18:03;;;;;;;110.57;41.35;;;;;;;;;;5114672;28;20051;-82
2022/03/05 12:20:33;;;;;;;111.72;43.85;;;;;;;;;;5115588;28;20365;-81
2022/03/05 12:23:03;;;;;;;130.35;49.80;;;;;;;;;;5115841;28;20042;-82
2022/03/05 12:25:33;;;;;;;129.48;46.15;;;;;;;;;;5116417;28;20444;-81
2022/03/05 12:27:58;;;;;;;118.53;43.90;;;;;;;;;;5125582;28;20027;-82
2022/03/05 12:30:37;;;;;;;100.00;39.55;;;;;;;;;;5119099;28;20040;-82
2022/03/05 12:33:13;;;;;;;122.05;42.25;;;;;;;;;;5115114;28;20028;-82
2022/03/05 12:35:39;;;;;;;128.68;45.80;;;;;;;;;;5114910;28;20032;-82
2022/03/05 12:38:05;;;;;;;103.07;39.03;;;;;;;;;;5097789;28;20032;-81
2022/03/05 12:40:31;;;;;;;116.55;45.50;;;;;;;;;;5115673;28;20545;-81
2022/03/05 12:42:57;;;;;;;94.85;37.78;;;;;;;;;;5114612;28;20069;-81
2022/03/05 12:45:27;;;;;;;107.00;39.45;;;;;;;;;;5097487;28;20349;-81
2022/03/05 12:47:58;;;;;;;118.18;44.63;;;;;;;;;;5081245;28;20053;-79
2022/03/05 12:50:34;;;;;;;103.25;41.10;;;;;;;;;;5108693;28;20027;-81
2022/03/05 12:53:01;;;;;;;101.85;38.38;;;;;;;;;;5097578;28;20133;-81
2022/03/05 12:55:29;;;;;;;94.60;35.88;;;;;;;;;;5114163;28;20036;-81
2022/03/05 12:57:59;;;;;;;96.70;37.05;;;;;;;;;;5115393;28;20445;-82
2022/03/05 13:00:25;;;;;;;106.70;40.43;;;;;;;;;;5080362;28;20035;-81
2022/03/05 13:02:51;;;;;;;99.72;37.42;;;;;;;;;;5115219;28;20346;-82
2022/03/05 13:05:16;;;;;;;103.40;39.03;;;;;;;;;;5115946;27;20478;-81
2022/03/05 13:07:42;;;;;;;88.35;34.80;;;;;;;;;;5113901;28;20034;-81
2022/03/05 13:10:08;;;;;;;91.20;34.50;;;;;;;;;;5114994;28;20031;-82
2022/03/05 13:12:37;;;;;;;87.93;35.35;;;;;;;;;;5124841;27;20049;-82
2022/03/05 13:15:04;;;;;;;88.80;36.25;;;;;;;;;;5114050;28;20076;-82
2022/03/05 13:17:29;;;;;;;101.60;38.83;;;;;;;;;;5114806;28;20043;-82
2022/03/05 13:20:03;;;;;;;77.63;32.88;;;;;;;;;;5113773;28;20047;-82
2022/03/05 13:22:29;;;;;;;88.32;33.75;;;;;;;;;;5117209;28;20069;-81
2022/03/05 13:24:54;;;;;;;84.22;34.50;;;;;;;;;;5127317;28;20098;-82
2022/03/05 13:27:25;;;;;;;89.40;36.45;;;;;;;;;;5097232;28;20069;-81
2022/03/05 13:29:53;;;;;;;87.38;36.20;;;;;;;;;;5115604;28;20054;-82
2022/03/05 13:32:19;;;;;;;88.88;35.75;;;;;;;;;;5112682;28;20429;-81
2022/03/05 13:34:44;;;;;;;111.82;42.60;;;;;;;;;;5123258;28;20122;-81
2022/03/05 13:37:11;;;;;;;83.47;36.80;;;;;;;;;;5096847;28;20120;-82
2022/03/05 13:39:37;;;;;;;98.00;37.05;;;;;;;;;;5113536;28;20514;-82
2022/03/05 13:42:12;;;;;;;94.93;36.85;;;;;;;;;;5114460;28;20039;-82
2022/03/05 13:44:38;;;;;;;103.82;39.03;;;;;;;;;;5115051;28;20041;-80
2022/03/05 13:47:08;;;;;;;95.50;37.60;;;;;;;;;;5114432;28;20437;-82
2022/03/05 13:49:34;;;;;;;110.43;40.95;;;;;;;;;;5097307;28;20027;-83
2022/03/05 13:52:00;;;;;;;91.47;37.45;;;;;;;;;;5080004;28;20034;-81
2022/03/05 13:54:40;;;;;;;86.03;35.10;;;;;;;;;;5096561;28;20392;-82
2022/03/05 13:57:27;;;;;;;89.85;34.35;;;;;;;;;;5126145;28;20425;-82
2022/03/05 13:59:55;;;;;;;93.32;39.33;;;;;;;;;;5113332;28;20487;-82
2022/03/05 14:02:30;;;;;;;88.78;36.92;;;;;;;;;;5096392;28;20040;-81
2022/03/05 14:05:00;;;;;;;90.35;38.42;;;;;;;;;;5113475;28;20391;-82
2022/03/05 14:07:26;;;;;;;92.38;38.90;;;;;;;;;;5096165;28;20023;-82
2022/03/05 14:09:55;;;;;;;98.07;40.95;;;;;;;;;;5113912;28;20039;-82
2022/03/05 14:12:27;;;;;;;94.05;40.13;;;;;;;;;;5113101;28;20034;-81